createdAt,value
2019-01-15T00:00:06.375Z,41.10
2019-01-15T00:02:34.830Z,41.30
2019-01-15T00:05:04.307Z,41.80
2019-01-15T00:07:32.679Z,41.90
2019-01-15T00:10:01.085Z,42.10
2019-01-15T00:12:29.423Z,42.10
2019-01-15T00:14:57.774Z,42.00
2019-01-15T00:17:26.124Z,41.90
2019-01-15T00:19:54.510Z,41.80
2019-01-15T00:22:22.959Z,41.90
2019-01-15T00:24:51.431Z,41.80
2019-01-15T00:27:19.873Z,41.80
2019-01-15T00:29:48.265Z,41.70
2019-01-15T00:32:16.642Z,41.70
2019-01-15T00:34:45.040Z,41.90
2019-01-15T00:37:13.609Z,41.90
2019-01-15T00:39:42.015Z,42.00
2019-01-15T00:42:15.266Z,42.00
2019-01-15T00:44:40.436Z,42.40
2019-01-15T00:47:08.974Z,42.10
2019-01-15T00:49:37.376Z,42.10
2019-01-15T00:52:05.759Z,41.90
2019-01-15T00:54:34.142Z,41.90
2019-01-15T00:57:02.424Z,41.80
2019-01-15T00:59:30.761Z,41.70
2019-01-15T01:01:59.130Z,41.50
2019-01-15T01:04:27.529Z,41.50
2019-01-15T01:06:55.902Z,41.50
2019-01-15T01:09:24.287Z,41.50
2019-01-15T01:11:52.897Z,41.50
2019-01-15T01:14:21.303Z,41.40
2019-01-15T01:16:49.646Z,41.20
2019-01-15T01:19:17.984Z,41.00
2019-01-15T01:21:46.362Z,40.90
2019-01-15T01:24:14.739Z,41.00
2019-01-15T01:26:43.106Z,41.00
2019-01-15T01:29:11.414Z,40.90
2019-01-15T01:31:39.845Z,40.90
2019-01-15T01:34:08.193Z,40.80
2019-01-15T01:36:36.574Z,40.80
2019-01-15T01:39:07.476Z,40.70
2019-01-15T01:41:35.906Z,40.50
2019-01-15T01:44:04.312Z,40.50
2019-01-15T01:46:32.688Z,40.30
2019-01-15T01:49:01.066Z,40.20
2019-01-15T01:51:29.353Z,40.10
2019-01-15T01:53:57.666Z,40.00
2019-01-15T01:56:26.020Z,40.40
2019-01-15T01:58:54.548Z,40.50
2019-01-15T02:01:22.895Z,40.30
2019-01-15T02:03:51.225Z,40.50
2019-01-15T02:06:19.598Z,40.40
2019-01-15T02:08:48.011Z,40.10
2019-01-15T02:11:16.396Z,40.00
2019-01-15T02:13:44.936Z,39.80
2019-01-15T02:16:13.333Z,39.80
2019-01-15T02:18:41.730Z,39.60
2019-01-15T02:21:10.130Z,39.40
2019-01-15T02:23:38.482Z,39.40
2019-01-15T02:26:06.790Z,39.40
2019-01-15T02:28:35.095Z,39.00
2019-01-15T02:31:03.475Z,39.00
2019-01-15T02:33:31.761Z,38.90
2019-01-15T02:36:00.171Z,38.90
2019-01-15T02:38:28.582Z,39.10
2019-01-15T02:40:56.980Z,38.80
2019-01-15T02:43:25.343Z,38.90
2019-01-15T02:45:53.745Z,38.80
2019-01-15T02:48:22.095Z,39.00
2019-01-15T02:50:50.785Z,39.00
2019-01-15T02:53:19.438Z,39.20
2019-01-15T02:55:47.849Z,39.20
2019-01-15T02:58:16.202Z,39.40
2019-01-15T03:00:44.566Z,39.40
2019-01-15T03:03:12.874Z,39.60
2019-01-15T03:05:41.244Z,39.50
2019-01-15T03:08:09.677Z,39.60
2019-01-15T03:10:38.037Z,39.60
2019-01-15T03:13:06.328Z,39.60
2019-01-15T03:15:34.756Z,39.70
2019-01-15T03:18:03.169Z,39.80
2019-01-15T03:20:31.542Z,39.90
2019-01-15T03:22:59.828Z,39.90
2019-01-15T03:25:28.230Z,39.80
2019-01-15T03:27:56.578Z,39.90
2019-01-15T03:30:24.943Z,39.90
2019-01-15T03:32:53.312Z,39.90
2019-01-15T03:35:21.708Z,39.90
2019-01-15T03:37:50.092Z,40.00
2019-01-15T03:40:23.586Z,40.00
2019-01-15T03:42:51.952Z,40.10
2019-01-15T03:45:20.344Z,40.20
2019-01-15T03:47:48.690Z,40.30
2019-01-15T03:50:17.693Z,40.30
2019-01-15T03:52:46.065Z,40.30
2019-01-15T03:55:15.104Z,40.30
2019-01-15T03:57:43.582Z,40.50
2019-01-15T04:00:17.770Z,40.60
2019-01-15T04:02:46.340Z,40.70
2019-01-15T04:05:16.435Z,40.70
2019-01-15T04:07:45.448Z,40.70
2019-01-15T04:10:13.854Z,41.20
2019-01-15T04:12:43.631Z,40.80
2019-01-15T04:15:13.316Z,40.90
2019-01-15T04:17:41.658Z,40.80
2019-01-15T04:20:12.927Z,40.90
2019-01-15T04:22:41.297Z,40.80
2019-01-15T04:25:10.301Z,41.00
2019-01-15T04:27:38.734Z,41.00
2019-01-15T04:30:10.308Z,41.00
2019-01-15T04:32:38.679Z,41.10
2019-01-15T04:35:08.846Z,41.20
2019-01-15T04:37:37.239Z,41.20
2019-01-15T04:40:11.665Z,41.30
2019-01-15T04:42:40.062Z,41.30
2019-01-15T04:45:11.537Z,41.40
2019-01-15T04:47:39.911Z,41.50
2019-01-15T04:50:09.558Z,41.70
2019-01-15T04:52:38.903Z,41.80
2019-01-15T04:55:09.673Z,41.80
2019-01-15T04:57:38.070Z,41.90
2019-01-15T05:00:12.506Z,41.90
2019-01-15T05:02:41.219Z,42.00
2019-01-15T05:05:09.582Z,42.00
2019-01-15T05:07:37.976Z,42.00
2019-01-15T05:10:09.681Z,42.20
2019-01-15T05:12:38.074Z,42.20
2019-01-15T05:15:09.309Z,42.30
2019-01-15T05:17:37.690Z,42.50
2019-01-15T05:20:09.044Z,42.50
2019-01-15T05:22:37.420Z,42.70
2019-01-15T05:25:09.013Z,42.80
2019-01-15T05:27:37.395Z,42.80
2019-01-15T05:30:09.115Z,42.70
2019-01-15T05:32:37.479Z,42.70
2019-01-15T05:35:06.754Z,42.80
2019-01-15T05:37:35.141Z,42.80
2019-01-15T05:40:04.725Z,42.80
2019-01-15T05:42:33.094Z,42.80
2019-01-15T05:45:01.880Z,42.70
2019-01-15T05:47:30.720Z,42.70
2019-01-15T05:49:59.329Z,42.70
2019-01-15T05:52:27.711Z,42.60
2019-01-15T05:54:56.124Z,42.50
2019-01-15T05:57:24.507Z,42.50
2019-01-15T05:59:52.868Z,42.60
2019-01-15T06:02:21.235Z,42.60
2019-01-15T06:04:49.604Z,42.60
2019-01-15T06:07:17.985Z,42.70
2019-01-15T06:09:46.323Z,42.70
2019-01-15T06:12:14.627Z,42.70
2019-01-15T06:14:42.993Z,42.80
2019-01-15T06:17:11.387Z,42.70
2019-01-15T06:19:39.747Z,42.80
2019-01-15T06:22:08.128Z,42.60
2019-01-15T06:24:36.784Z,42.70
2019-01-15T06:27:05.324Z,42.60
2019-01-15T06:29:33.738Z,42.60
2019-01-15T06:32:02.115Z,42.60
2019-01-15T06:34:30.524Z,42.60
2019-01-15T06:36:58.950Z,42.60
2019-01-15T06:39:27.294Z,42.70
2019-01-15T06:41:55.644Z,42.70
2019-01-15T06:44:24.045Z,42.70
2019-01-15T06:46:52.477Z,42.70
2019-01-15T06:49:20.848Z,42.70
2019-01-15T06:51:49.152Z,42.70
2019-01-15T06:54:17.553Z,42.60
2019-01-15T06:56:45.928Z,42.70
2019-01-15T06:59:14.323Z,42.60
2019-01-15T07:01:42.696Z,42.60
2019-01-15T07:04:11.067Z,42.60
2019-01-15T07:06:39.472Z,42.60
2019-01-15T07:09:08.790Z,42.70
2019-01-15T07:11:37.176Z,42.50
2019-01-15T07:14:05.587Z,42.50
2019-01-15T07:16:34.138Z,42.50
2019-01-15T07:19:02.518Z,42.50
2019-01-15T07:21:31.152Z,42.40
2019-01-15T07:23:59.612Z,42.40
2019-01-15T07:26:28.006Z,42.40
2019-01-15T07:28:56.307Z,42.30
2019-01-15T07:31:24.694Z,42.30
2019-01-15T07:33:53.114Z,42.30
2019-01-15T07:36:21.474Z,42.30
2019-01-15T07:38:49.831Z,42.30
2019-01-15T07:41:18.231Z,42.40
2019-01-15T07:43:46.604Z,42.30
2019-01-15T07:46:15.004Z,42.20
2019-01-15T07:48:43.357Z,42.30
2019-01-15T07:51:11.688Z,42.30
2019-01-15T07:53:40.060Z,42.40
2019-01-15T07:56:08.445Z,42.50
2019-01-15T07:58:36.810Z,42.50
2019-01-15T08:01:05.118Z,42.70
2019-01-15T08:03:33.500Z,42.50
2019-01-15T08:06:01.881Z,42.50
2019-01-15T08:08:30.202Z,42.40
2019-01-15T08:10:58.626Z,42.50
2019-01-15T08:13:27.030Z,42.50
2019-01-15T08:15:56.458Z,42.50
2019-01-15T08:18:25.040Z,42.40
2019-01-15T08:20:53.516Z,42.30
2019-01-15T08:23:21.933Z,42.20
2019-01-15T08:25:50.382Z,42.20
2019-01-15T08:28:18.800Z,42.20
2019-01-15T08:30:47.108Z,42.20
2019-01-15T08:33:15.504Z,42.20
2019-01-15T08:35:43.850Z,42.20
2019-01-15T08:38:12.253Z,42.10
2019-01-15T08:40:40.622Z,42.10
2019-01-15T08:43:09.032Z,42.20
2019-01-15T08:45:37.370Z,42.20
2019-01-15T08:48:10.144Z,42.30
2019-01-15T08:50:38.436Z,42.30
2019-01-15T08:53:06.756Z,42.30
2019-01-15T08:55:35.207Z,42.30
2019-01-15T08:58:03.599Z,42.30
2019-01-15T09:00:31.995Z,42.50
2019-01-15T09:03:00.352Z,42.50
2019-01-15T09:05:28.746Z,42.70
2019-01-15T09:07:57.119Z,42.50
2019-01-15T09:10:25.518Z,42.40
2019-01-15T09:12:53.901Z,42.40
2019-01-15T09:15:22.782Z,42.50
2019-01-15T09:17:51.332Z,42.50
2019-01-15T09:20:20.976Z,42.50
2019-01-15T09:22:49.439Z,42.30
2019-01-15T09:25:17.859Z,42.70
2019-01-15T09:27:46.258Z,42.40
2019-01-15T09:30:17.283Z,42.40
2019-01-15T09:32:45.769Z,42.40
2019-01-15T09:35:14.176Z,42.40
2019-01-15T09:37:43.311Z,42.40
2019-01-15T09:40:17.351Z,42.40
2019-01-15T09:42:45.761Z,42.30
2019-01-15T09:45:16.344Z,42.20
2019-01-15T09:47:52.329Z,42.20
2019-01-15T09:50:20.699Z,42.30
2019-01-15T09:52:49.461Z,42.30
2019-01-15T09:55:17.877Z,42.30
2019-01-15T09:57:46.334Z,42.20
2019-01-15T10:00:19.026Z,42.30
2019-01-15T10:02:47.393Z,42.30
2019-01-15T10:05:15.809Z,42.30
2019-01-15T10:07:44.172Z,42.50
2019-01-15T10:10:14.659Z,42.30
2019-01-15T10:12:42.970Z,42.50
2019-01-15T10:15:16.418Z,42.50
2019-01-15T10:17:44.812Z,42.60
2019-01-15T10:20:14.765Z,42.60
2019-01-15T10:22:43.375Z,42.70
2019-01-15T10:25:13.369Z,42.70
2019-01-15T10:27:42.323Z,42.80
2019-01-15T10:30:27.494Z,42.80
2019-01-15T10:32:59.124Z,42.80
2019-01-15T10:35:30.812Z,42.80
2019-01-15T10:37:59.156Z,43.00
2019-01-15T10:40:27.571Z,43.00
2019-01-15T10:42:55.955Z,43.10
2019-01-15T10:45:24.391Z,43.10
2019-01-15T10:47:52.775Z,43.10
2019-01-15T10:50:21.125Z,43.00
2019-01-15T10:52:49.509Z,42.90
2019-01-15T10:55:17.915Z,42.90
2019-01-15T10:57:46.268Z,42.80
2019-01-15T11:00:14.640Z,42.80
2019-01-15T11:03:02.457Z,42.70
2019-01-15T11:05:30.832Z,42.70
2019-01-15T11:07:59.194Z,42.60
2019-01-15T11:10:27.513Z,42.70
2019-01-15T11:12:55.865Z,42.60
2019-01-15T11:15:24.264Z,42.60
2019-01-15T11:17:52.710Z,42.60
2019-01-15T11:20:24.036Z,42.50
2019-01-15T11:22:52.417Z,42.50
2019-01-15T11:25:20.809Z,42.70
2019-01-15T11:27:49.198Z,42.60
2019-01-15T11:30:17.571Z,42.40
2019-01-15T11:32:45.907Z,42.40
2019-01-15T11:35:14.466Z,42.50
2019-01-15T11:37:42.918Z,42.50
2019-01-15T11:40:16.551Z,43.00
2019-01-15T11:42:44.842Z,42.40
2019-01-15T11:45:15.614Z,42.40
2019-01-15T11:47:43.983Z,42.70
2019-01-15T11:50:18.219Z,42.60
2019-01-15T11:52:46.570Z,42.80
2019-01-15T11:55:14.918Z,42.90
2019-01-15T11:57:43.297Z,43.00
2019-01-15T12:00:38.327Z,42.90
2019-01-15T12:03:08.350Z,43.10
2019-01-15T12:05:54.568Z,43.20
2019-01-15T12:08:33.499Z,43.20
2019-01-15T12:11:06.481Z,43.10
2019-01-15T12:13:52.813Z,43.00
2019-01-15T12:16:39.954Z,43.10
2019-01-15T12:19:09.946Z,42.90
2019-01-15T12:21:39.954Z,43.10
2019-01-15T12:24:12.780Z,43.10
2019-01-15T12:26:42.882Z,43.10
2019-01-15T12:29:12.872Z,42.90
2019-01-15T12:31:58.121Z,42.90
2019-01-15T12:34:31.108Z,42.90
2019-01-15T12:37:07.206Z,42.90
2019-01-15T12:39:53.631Z,42.80
2019-01-15T12:42:29.748Z,42.90
2019-01-15T12:45:18.422Z,42.80
2019-01-15T12:48:05.755Z,43.00
2019-01-15T12:50:44.784Z,43.00
2019-01-15T12:53:20.390Z,43.00
2019-01-15T12:55:56.174Z,43.20
2019-01-15T12:58:35.121Z,43.30
2019-01-15T13:01:11.038Z,43.30
2019-01-15T13:03:57.461Z,43.60
2019-01-15T13:06:33.452Z,43.50
2019-01-15T13:09:12.404Z,43.70
2019-01-15T13:11:58.376Z,43.80
2019-01-15T13:14:34.667Z,43.70
2019-01-15T13:17:07.395Z,43.70
2019-01-15T13:19:37.466Z,43.70
2019-01-15T13:22:07.423Z,43.70
2019-01-15T13:24:40.307Z,43.70
2019-01-15T13:27:19.208Z,43.80
2019-01-15T13:29:49.241Z,43.80
2019-01-15T13:32:25.317Z,43.80
2019-01-15T13:34:58.297Z,44.00
2019-01-15T13:37:34.235Z,44.10
2019-01-15T13:40:20.454Z,44.10
2019-01-15T13:43:07.149Z,44.20
2019-01-15T13:45:41.696Z,44.20
2019-01-15T13:48:08.872Z,44.30
2019-01-15T13:50:38.883Z,44.30
2019-01-15T13:53:25.371Z,44.30
2019-01-15T13:56:10.762Z,44.40
2019-01-15T13:58:43.811Z,44.30
2019-01-15T14:01:30.241Z,44.40
2019-01-15T14:04:06.178Z,44.40
2019-01-15T14:06:39.219Z,44.30
2019-01-15T14:09:13.746Z,44.30
2019-01-15T14:11:49.669Z,44.40
2019-01-15T14:14:31.763Z,44.60
2019-01-15T14:17:01.790Z,44.70
2019-01-15T14:19:48.283Z,44.80
2019-01-15T14:22:36.793Z,44.90
2019-01-15T14:25:09.597Z,44.90
2019-01-15T14:27:48.823Z,45.00
2019-01-15T14:30:31.568Z,45.10
2019-01-15T14:33:04.274Z,45.50
2019-01-15T14:35:50.903Z,45.00
2019-01-15T14:38:33.101Z,45.00
2019-01-15T14:41:03.159Z,45.00
2019-01-15T14:43:33.171Z,45.00
2019-01-15T14:46:21.425Z,45.00
2019-01-15T14:49:07.505Z,44.90
2019-01-15T14:51:43.455Z,45.00
2019-01-15T14:54:25.706Z,45.00
2019-01-15T14:57:10.779Z,44.90
2019-01-15T14:59:47.036Z,45.00
2019-01-15T15:02:32.109Z,44.90
2019-01-15T15:05:20.090Z,44.90
2019-01-15T15:07:56.223Z,45.00
2019-01-15T15:10:35.031Z,44.90
2019-01-15T15:13:13.818Z,44.90
2019-01-15T15:16:03.596Z,45.00
2019-01-15T15:18:33.464Z,45.10
2019-01-15T15:21:03.460Z,45.00
2019-01-15T15:23:35.921Z,45.00
2019-01-15T15:26:18.210Z,45.00
2019-01-15T15:28:48.324Z,45.00
2019-01-15T15:31:18.335Z,45.10
2019-01-15T15:33:48.272Z,45.10
2019-01-15T15:36:34.495Z,45.10
2019-01-15T15:39:10.708Z,45.10
2019-01-15T15:41:56.913Z,44.90
2019-01-15T15:44:45.175Z,44.90
2019-01-15T15:47:21.108Z,45.00
2019-01-15T15:49:51.155Z,45.00
2019-01-15T15:52:23.607Z,44.90
2019-01-15T15:55:10.169Z,44.90
2019-01-15T15:57:46.161Z,44.80
2019-01-15T16:00:23.377Z,44.80
2019-01-15T16:02:56.061Z,44.80
2019-01-15T16:05:42.372Z,44.80
2019-01-15T16:08:21.223Z,45.00
2019-01-15T16:11:07.895Z,44.80
2019-01-15T16:13:54.263Z,44.80
2019-01-15T16:16:26.967Z,44.90
2019-01-15T16:19:13.243Z,44.80
2019-01-15T16:21:43.314Z,44.90
2019-01-15T16:24:16.275Z,45.00
2019-01-15T16:26:52.276Z,45.00
2019-01-15T16:29:22.307Z,45.00
2019-01-15T16:32:08.660Z,45.00
2019-01-15T16:34:41.379Z,44.90
2019-01-15T16:37:23.807Z,44.80
2019-01-15T16:40:10.215Z,44.80
2019-01-15T16:42:42.886Z,44.90
2019-01-15T16:45:22.036Z,44.80
2019-01-15T16:47:55.137Z,44.80
2019-01-15T16:50:28.106Z,44.80
2019-01-15T16:53:06.932Z,44.90
2019-01-15T16:55:51.865Z,44.80
2019-01-15T16:58:21.886Z,44.70
2019-01-15T17:00:54.520Z,44.70
2019-01-15T17:03:24.537Z,44.70
2019-01-15T17:06:11.069Z,44.80
2019-01-15T17:08:50.036Z,44.80
2019-01-15T17:11:36.629Z,44.70
2019-01-15T17:14:12.579Z,44.80
2019-01-15T17:16:42.554Z,44.80
2019-01-15T17:19:15.427Z,44.90
2019-01-15T17:21:45.456Z,44.90
2019-01-15T17:24:15.486Z,44.90
2019-01-15T17:26:54.934Z,44.90
2019-01-15T17:29:30.688Z,45.10
2019-01-15T17:32:19.144Z,45.20
2019-01-15T17:34:49.154Z,45.30
2019-01-15T17:37:19.128Z,45.40
2019-01-15T17:39:52.302Z,45.50
2019-01-15T17:42:22.378Z,45.50
2019-01-15T17:45:07.646Z,45.70
2019-01-15T17:47:43.899Z,45.80
2019-01-15T17:50:14.286Z,45.90
2019-01-15T17:53:00.436Z,46.00
2019-01-15T17:55:36.193Z,46.30
2019-01-15T17:58:06.260Z,46.40
2019-01-15T18:00:36.326Z,46.50
2019-01-15T18:03:06.343Z,46.50
2019-01-15T18:05:36.365Z,46.50
2019-01-15T18:08:18.465Z,46.50
2019-01-15T18:10:48.501Z,46.80
2019-01-15T18:13:34.896Z,46.70
2019-01-15T18:16:04.894Z,46.80
2019-01-15T18:18:51.125Z,46.80
2019-01-15T18:21:26.888Z,46.90
2019-01-15T18:26:58.768Z,47.30
2019-01-15T18:29:40.977Z,47.50
2019-01-15T18:32:10.991Z,47.90
2019-01-15T18:34:46.834Z,48.30
2019-01-15T18:37:19.510Z,48.50
2019-01-15T18:40:01.521Z,48.60
2019-01-15T18:42:34.242Z,48.70
2019-01-15T18:45:13.382Z,48.90
2019-01-15T18:47:52.071Z,49.20
2019-01-15T18:50:28.180Z,49.40
2019-01-15T18:52:58.158Z,49.50
2019-01-15T18:55:34.082Z,49.40
2019-01-15T18:58:06.800Z,49.60
2019-01-15T19:00:36.856Z,49.80
2019-01-15T19:03:24.851Z,50.30
2019-01-15T19:06:12.970Z,49.90
2019-01-15T19:08:45.977Z,49.90
2019-01-15T19:11:18.924Z,50.10
2019-01-15T19:13:52.168Z,50.20
2019-01-15T19:16:25.198Z,50.30
2019-01-15T19:19:11.188Z,50.50
2019-01-15T19:21:41.340Z,50.50
2019-01-15T19:24:17.271Z,50.50
2019-01-15T19:26:56.083Z,50.80
2019-01-15T19:29:26.203Z,50.90
2019-01-15T19:32:12.766Z,50.90
2019-01-15T19:34:58.823Z,51.00
2019-01-15T19:37:31.765Z,51.10
2019-01-15T19:40:10.396Z,51.10
2019-01-15T19:42:40.492Z,51.10
2019-01-15T19:45:15.963Z,51.10
2019-01-15T19:47:48.964Z,51.30
2019-01-15T19:50:35.461Z,51.20
2019-01-15T19:53:08.505Z,51.40
2019-01-15T19:55:38.534Z,51.40
2019-01-15T19:58:08.574Z,51.50
2019-01-15T20:00:38.613Z,51.50
2019-01-15T20:03:24.961Z,51.50
2019-01-15T20:05:54.976Z,51.40
2019-01-15T20:08:41.455Z,51.50
2019-01-15T20:11:27.872Z,51.50
2019-01-15T20:14:14.267Z,51.60
2019-01-15T20:16:50.209Z,51.60
2019-01-15T20:19:36.304Z,51.60
2019-01-15T20:22:12.261Z,51.60
2019-01-15T20:24:42.289Z,51.60
2019-01-15T20:27:28.626Z,51.60
2019-01-15T20:30:07.502Z,51.60
2019-01-15T20:32:43.530Z,51.50
2019-01-15T20:35:25.880Z,51.40
2019-01-15T20:37:56.208Z,51.90
2019-01-15T20:40:26.231Z,51.50
2019-01-15T20:42:56.253Z,51.40
2019-01-15T20:45:29.205Z,51.30
2019-01-15T20:48:15.231Z,51.30
2019-01-15T20:51:03.663Z,51.30
2019-01-15T20:53:35.160Z,51.20
2019-01-15T20:56:05.134Z,51.20
2019-01-15T20:58:35.244Z,51.20
2019-01-15T21:01:08.429Z,51.20
2019-01-15T21:03:54.982Z,51.10
2019-01-15T21:06:41.055Z,51.10
2019-01-15T21:09:11.102Z,51.00
2019-01-15T21:11:46.580Z,51.00
2019-01-15T21:14:19.608Z,51.10
2019-01-15T21:17:05.850Z,51.00
2019-01-15T21:19:48.205Z,50.90
2019-01-15T21:22:26.956Z,50.90
2019-01-15T21:24:56.936Z,50.90
2019-01-15T21:27:26.947Z,50.90
2019-01-15T21:30:03.111Z,50.90
2019-01-15T21:32:38.849Z,50.80
2019-01-15T21:35:20.731Z,50.90
2019-01-15T21:38:07.008Z,50.90
2019-01-15T21:40:37.129Z,51.00
2019-01-15T21:43:16.343Z,51.00
2019-01-15T21:45:46.487Z,51.10
2019-01-15T21:48:33.109Z,51.00
2019-01-15T21:51:09.280Z,51.10
2019-01-15T21:53:48.606Z,51.00
2019-01-15T21:56:24.693Z,51.10
2019-01-15T21:58:57.632Z,51.10
2019-01-15T22:01:27.695Z,51.20
2019-01-15T22:04:12.891Z,51.30
2019-01-15T22:06:43.240Z,51.30
2019-01-15T22:09:13.255Z,51.30
2019-01-15T22:11:58.151Z,51.20
2019-01-15T22:14:44.646Z,51.20
2019-01-15T22:17:23.693Z,51.20
2019-01-15T22:20:06.003Z,51.20
2019-01-15T22:22:52.409Z,51.20
2019-01-15T22:25:25.140Z,51.20
2019-01-15T22:28:11.631Z,51.20
2019-01-15T22:30:44.897Z,51.20
2019-01-15T22:33:29.898Z,51.10
2019-01-15T22:36:02.910Z,51.10
2019-01-15T22:38:42.059Z,51.20
2019-01-15T22:41:12.084Z,51.10
2019-01-15T22:43:42.090Z,51.20
2019-01-15T22:46:14.718Z,51.10
2019-01-15T22:48:44.744Z,51.20
2019-01-15T22:51:29.763Z,51.20
2019-01-15T22:53:59.796Z,51.20
2019-01-15T22:56:32.899Z,51.10
2019-01-15T22:59:19.653Z,51.00
2019-01-15T23:01:52.635Z,51.00
2019-01-15T23:04:28.456Z,51.10
2019-01-15T23:07:01.471Z,51.00
2019-01-15T23:09:31.526Z,51.10
2019-01-15T23:12:19.442Z,51.00
2019-01-15T23:14:58.058Z,51.00
2019-01-15T23:17:36.998Z,51.00
2019-01-15T23:20:09.855Z,50.90
2019-01-15T23:22:42.807Z,50.90
2019-01-15T23:25:28.231Z,50.90
2019-01-15T23:28:01.434Z,50.80
2019-01-15T23:30:31.469Z,50.70
2019-01-15T23:33:18.088Z,50.60
2019-01-15T23:35:48.142Z,50.70
2019-01-15T23:38:27.261Z,50.60
2019-01-15T23:41:03.213Z,50.70
2019-01-15T23:43:36.086Z,50.60
2019-01-15T23:46:22.299Z,50.70
2019-01-15T23:48:52.372Z,50.50
2019-01-15T23:51:34.654Z,50.60
2019-01-15T23:54:19.936Z,50.60
2019-01-15T23:56:52.694Z,50.50
2019-01-15T23:59:25.433Z,50.60
